createdAt,value
2023-05-05T00:00:27.732Z,438.9231
2023-05-05T00:01:28.839Z,443.2308
2023-05-05T00:02:30.051Z,446.8462
2023-05-05T00:03:31.134Z,444.8462
2023-05-05T00:04:32.163Z,438.1538
2023-05-05T00:05:33.282Z,436.9231
2023-05-05T00:06:34.386Z,445.4615
2023-05-05T00:07:35.522Z,446.6923
2023-05-05T00:08:36.591Z,446.9231
2023-05-05T00:09:37.717Z,445.6154
2023-05-05T00:10:38.805Z,446.5385
2023-05-05T00:11:39.920Z,443.4615
2023-05-05T00:12:41.053Z,442.6923
2023-05-05T00:13:42.151Z,441.3846
2023-05-05T00:14:43.231Z,442.4615
2023-05-05T00:15:44.340Z,454.1538
2023-05-05T00:16:45.457Z,454.0769
2023-05-05T00:17:46.630Z,450.6923
2023-05-05T00:18:47.658Z,451.6154
2023-05-05T00:19:48.755Z,452.2308
2023-05-05T00:20:49.883Z,447.3077
2023-05-05T00:21:50.957Z,446.1538
2023-05-05T00:22:52.075Z,442.3077
2023-05-05T00:23:53.181Z,445.5385
2023-05-05T00:24:54.291Z,443.5385
2023-05-05T00:25:55.380Z,446.5385
2023-05-05T00:26:56.494Z,448.2308
2023-05-05T00:27:57.604Z,441.4615
2023-05-05T00:28:58.711Z,446.5385
2023-05-05T00:29:59.815Z,444.9231
2023-05-05T00:31:00.957Z,451.8462
2023-05-05T00:32:02.037Z,449.6154
2023-05-05T00:33:03.217Z,447.0000
2023-05-05T00:34:04.252Z,440.6154
2023-05-05T00:35:05.327Z,442.8462
2023-05-05T00:36:06.407Z,438.0769
2023-05-05T00:37:07.520Z,441.9231
2023-05-05T00:38:08.638Z,442.6154
2023-05-05T00:39:09.705Z,443.1538
2023-05-05T00:40:10.796Z,443.0000
2023-05-05T00:41:11.905Z,440.5385
2023-05-05T00:42:13.022Z,440.6154
2023-05-05T00:43:14.093Z,437.7692
2023-05-05T00:44:15.188Z,436.8462
2023-05-05T00:45:16.291Z,440.3846
2023-05-05T00:46:17.410Z,445.3846
2023-05-05T00:47:18.469Z,442.8462
2023-05-05T00:48:19.592Z,438.4615
2023-05-05T00:49:20.703Z,445.6154
2023-05-05T00:50:21.773Z,439.0769
2023-05-05T00:51:22.841Z,438.1538
2023-05-05T00:52:23.930Z,436.0769
2023-05-05T00:53:25.234Z,439.4615
2023-05-05T00:54:26.124Z,444.5385
2023-05-05T00:55:27.225Z,444.9231
2023-05-05T00:56:28.311Z,437.8462
2023-05-05T00:57:29.394Z,441.4615
2023-05-05T00:58:30.494Z,437.3077
2023-05-05T00:59:31.582Z,434.5385
2023-05-05T01:00:32.696Z,430.6923
2023-05-05T01:01:33.799Z,434.7692
2023-05-05T01:02:34.944Z,439.7692
2023-05-05T01:03:36.080Z,438.4615
2023-05-05T01:04:37.093Z,442.8462
2023-05-05T01:05:38.167Z,448.6154
2023-05-05T01:06:39.255Z,455.8462
2023-05-05T01:07:40.358Z,455.9231
2023-05-05T01:08:41.496Z,440.6923
2023-05-05T01:09:42.535Z,436.0769
2023-05-05T01:10:43.643Z,444.0769
2023-05-05T01:11:44.764Z,443.0000
2023-05-05T01:12:45.863Z,440.4615
2023-05-05T01:13:46.967Z,442.8462
2023-05-05T01:14:48.020Z,432.9231
2023-05-05T01:15:49.118Z,435.6923
2023-05-05T01:16:50.213Z,441.5385
2023-05-05T01:17:51.319Z,443.1538
2023-05-05T01:18:52.420Z,436.8462
2023-05-05T01:19:53.505Z,428.8462
2023-05-05T01:20:54.585Z,427.6923
2023-05-05T01:21:55.686Z,418.3077
2023-05-05T01:22:56.800Z,432.6923
2023-05-05T01:23:57.877Z,436.9231
2023-05-05T01:24:58.989Z,435.7692
2023-05-05T01:26:00.097Z,431.2308
2023-05-05T01:27:01.168Z,429.0000
2023-05-05T01:28:02.275Z,436.8462
2023-05-05T01:29:03.403Z,434.8462
2023-05-05T01:30:04.477Z,431.3846
2023-05-05T01:31:05.578Z,433.0000
2023-05-05T01:32:06.656Z,429.5385
2023-05-05T01:33:07.744Z,432.6923
2023-05-05T01:34:08.865Z,438.5385
2023-05-05T01:35:09.957Z,434.0769
2023-05-05T01:36:11.021Z,437.4615
2023-05-05T01:37:12.139Z,435.8462
2023-05-05T01:38:13.231Z,438.3077
2023-05-05T01:39:14.333Z,429.3077
2023-05-05T01:40:15.424Z,429.2308
2023-05-05T01:41:16.525Z,438.7692
2023-05-05T01:42:17.609Z,439.5385
2023-05-05T01:43:18.694Z,437.7692
2023-05-05T01:44:19.790Z,425.6923
2023-05-05T01:45:20.889Z,427.6154
2023-05-05T01:46:22.031Z,432.0769
2023-05-05T01:47:23.089Z,429.4615
2023-05-05T01:48:24.209Z,437.0000
2023-05-05T01:49:25.298Z,435.0000
2023-05-05T01:50:26.372Z,431.7692
2023-05-05T01:51:27.481Z,432.0769
2023-05-05T01:52:28.576Z,432.1538
2023-05-05T01:53:29.681Z,438.0769
2023-05-05T01:54:30.780Z,425.7692
2023-05-05T01:55:31.876Z,419.6923
2023-05-05T01:56:32.981Z,418.3077
2023-05-05T01:57:34.046Z,428.8462
2023-05-05T01:58:35.145Z,422.0000
2023-05-05T01:59:36.248Z,422.0000
2023-05-05T02:00:37.357Z,427.9231
2023-05-05T02:01:38.541Z,429.4615
2023-05-05T02:02:39.614Z,417.9231
2023-05-05T02:03:40.637Z,405.6923
2023-05-05T02:04:41.754Z,403.8462
2023-05-05T02:05:50.379Z,405.1538
2023-05-05T02:06:43.937Z,412.2500
2023-05-05T02:07:45.050Z,414.2308
2023-05-05T02:08:46.265Z,405.3846
2023-05-05T02:09:47.323Z,402.8462
2023-05-05T02:10:48.456Z,402.3077
2023-05-05T02:11:49.510Z,404.3077
2023-05-05T02:12:50.611Z,407.9231
2023-05-05T02:13:51.820Z,405.1538
2023-05-05T02:14:52.800Z,401.6923
2023-05-05T02:15:53.887Z,400.6923
2023-05-05T02:16:54.981Z,401.3077
2023-05-05T02:17:56.097Z,400.0769
2023-05-05T02:18:57.206Z,400.0000
2023-05-05T02:19:58.285Z,400.0769
2023-05-05T02:20:59.368Z,400.0000
2023-05-05T02:22:00.452Z,400.0000
2023-05-05T02:23:01.542Z,400.0000
2023-05-05T02:24:02.660Z,400.0000
2023-05-05T02:25:03.747Z,400.0000
2023-05-05T02:26:04.839Z,400.0000
2023-05-05T02:27:05.935Z,400.0000
2023-05-05T02:28:07.026Z,400.0000
2023-05-05T02:29:08.141Z,400.0000
2023-05-05T02:30:09.395Z,400.0000
2023-05-05T02:31:10.362Z,400.0000
2023-05-05T02:32:11.410Z,400.0000
2023-05-05T02:33:12.501Z,400.0000
2023-05-05T02:34:13.592Z,400.0000
2023-05-05T02:35:14.700Z,400.0000
2023-05-05T02:36:15.766Z,400.0000
2023-05-05T02:37:16.860Z,400.0000
2023-05-05T02:38:17.960Z,400.0000
2023-05-05T02:39:19.035Z,400.0000
2023-05-05T02:40:20.201Z,400.0000
2023-05-05T02:41:21.245Z,400.0000
2023-05-05T02:42:22.317Z,400.0000
2023-05-05T02:43:23.460Z,400.0000
2023-05-05T02:44:24.519Z,400.0000
2023-05-05T02:45:25.624Z,400.0000
2023-05-05T02:46:26.714Z,400.0000
2023-05-05T02:47:27.840Z,400.0000
2023-05-05T02:48:28.913Z,400.0000
2023-05-05T02:49:29.986Z,400.0000
2023-05-05T02:50:31.085Z,400.0000
2023-05-05T02:51:32.150Z,400.0000
2023-05-05T02:52:33.247Z,400.0000
2023-05-05T02:53:34.352Z,400.0000
2023-05-05T02:54:35.447Z,400.0000
2023-05-05T02:55:36.692Z,400.0000
2023-05-05T02:56:37.614Z,400.0000
2023-05-05T02:57:38.701Z,400.0000
2023-05-05T02:58:39.818Z,400.0000
2023-05-05T02:59:40.889Z,400.0000
2023-05-05T03:00:41.987Z,400.0000
2023-05-05T03:01:43.102Z,400.0000
2023-05-05T03:02:44.234Z,400.0000
2023-05-05T03:03:45.367Z,400.0000
2023-05-05T03:04:46.365Z,400.0000
2023-05-05T03:05:47.513Z,400.0000
2023-05-05T03:06:48.540Z,400.0000
2023-05-05T03:07:49.637Z,400.0000
2023-05-05T03:08:50.728Z,400.0000
2023-05-05T03:09:51.835Z,400.0000
2023-05-05T03:10:52.921Z,400.0000
2023-05-05T03:11:54.021Z,400.0000
2023-05-05T03:12:55.180Z,400.0000
2023-05-05T03:13:56.204Z,400.0000
2023-05-05T03:14:57.309Z,400.0000
2023-05-05T03:15:58.423Z,400.0000
2023-05-05T03:16:59.506Z,400.0000
2023-05-05T03:18:00.634Z,400.0000
2023-05-05T03:19:01.690Z,400.0000
2023-05-05T03:20:05.388Z,400.0000
2023-05-05T03:21:03.868Z,400.0000
2023-05-05T03:22:04.953Z,400.0000
2023-05-05T03:23:06.074Z,400.0000
2023-05-05T03:24:07.181Z,400.0000
2023-05-05T03:25:08.258Z,400.0000
2023-05-05T03:26:09.367Z,400.3077
2023-05-05T03:27:10.439Z,400.0000
2023-05-05T03:28:11.534Z,400.0000
2023-05-05T03:29:12.635Z,400.0000
2023-05-05T03:30:13.715Z,400.0000
2023-05-05T03:31:14.850Z,400.0000
2023-05-05T03:32:15.932Z,400.0000
2023-05-05T03:33:17.010Z,400.0000
2023-05-05T03:34:18.100Z,400.0000
2023-05-05T03:35:19.203Z,400.0000
2023-05-05T03:36:20.314Z,400.0000
2023-05-05T03:37:21.404Z,400.0000
2023-05-05T03:38:22.517Z,400.0000
2023-05-05T03:39:23.599Z,400.0000
2023-05-05T03:40:36.334Z,400.0000
2023-05-05T03:41:26.809Z,400.0000
2023-05-05T03:42:26.887Z,400.0000
2023-05-05T03:43:27.976Z,400.0000
2023-05-05T03:44:29.094Z,400.0000
2023-05-05T03:45:30.177Z,400.0000
2023-05-05T03:46:31.297Z,400.0000
2023-05-05T03:47:32.408Z,400.0000
2023-05-05T03:48:33.455Z,400.0000
2023-05-05T03:49:34.549Z,400.0000
2023-05-05T03:50:35.660Z,400.0000
2023-05-05T03:51:36.779Z,400.0000
2023-05-05T03:52:37.852Z,400.0000
2023-05-05T03:53:38.952Z,400.0000
2023-05-05T03:54:40.068Z,400.0000
2023-05-05T03:55:41.124Z,400.0000
2023-05-05T03:56:42.261Z,400.0000
2023-05-05T03:57:43.346Z,400.0000
2023-05-05T03:58:44.424Z,400.0000
2023-05-05T03:59:45.529Z,400.0000
2023-05-05T04:00:46.633Z,400.0000
2023-05-05T04:01:47.745Z,400.0000
2023-05-05T04:02:48.891Z,400.0000
2023-05-05T04:03:49.950Z,400.0000
2023-05-05T04:04:51.014Z,400.0000
2023-05-05T04:05:52.099Z,400.0000
2023-05-05T04:06:53.212Z,400.0000
2023-05-05T04:07:54.338Z,400.0000
2023-05-05T04:08:55.416Z,400.0000
2023-05-05T04:09:56.511Z,400.0000
2023-05-05T04:10:57.626Z,400.0000
2023-05-05T04:11:58.722Z,400.0000
2023-05-05T04:12:59.841Z,400.0000
2023-05-05T04:14:00.896Z,400.0000
2023-05-05T04:15:02.021Z,400.0000
2023-05-05T04:16:03.147Z,400.0000
2023-05-05T04:17:04.212Z,400.0000
2023-05-05T04:18:05.339Z,400.0000
2023-05-05T04:19:06.413Z,400.0000
2023-05-05T04:20:07.692Z,400.0000
2023-05-05T04:21:08.609Z,400.0000
2023-05-05T04:22:09.699Z,400.0000
2023-05-05T04:23:10.787Z,400.0000
2023-05-05T04:24:11.882Z,400.0000
2023-05-05T04:25:13.003Z,400.0000
2023-05-05T04:26:14.080Z,402.4615
2023-05-05T04:27:15.212Z,403.2308
2023-05-05T04:28:16.288Z,400.0000
2023-05-05T04:29:17.370Z,400.1538
2023-05-05T04:30:18.487Z,400.6923
2023-05-05T04:31:19.589Z,400.0000
2023-05-05T04:32:20.698Z,400.0000
2023-05-05T04:33:21.761Z,400.0000
2023-05-05T04:34:22.877Z,400.0000
2023-05-05T04:35:23.949Z,400.0000
2023-05-05T04:36:25.044Z,400.0000
2023-05-05T04:37:26.193Z,400.0000
2023-05-05T04:38:27.296Z,400.0000
2023-05-05T04:39:28.344Z,400.0000
2023-05-05T04:40:29.452Z,400.0000
2023-05-05T04:41:30.571Z,400.0000
2023-05-05T04:42:31.635Z,400.0000
2023-05-05T04:43:32.747Z,400.0000
2023-05-05T04:44:33.832Z,400.0000
2023-05-05T04:45:34.929Z,400.0769
2023-05-05T04:46:36.081Z,400.0000
2023-05-05T04:47:37.156Z,400.0000
2023-05-05T04:48:38.216Z,400.0000
2023-05-05T04:49:39.314Z,400.0000
2023-05-05T04:50:40.421Z,400.0000
2023-05-05T04:51:41.512Z,400.0000
2023-05-05T04:52:42.628Z,400.0000
2023-05-05T04:53:43.702Z,400.0000
2023-05-05T04:54:44.786Z,400.0000
2023-05-05T04:55:45.898Z,400.0000
2023-05-05T04:56:46.975Z,400.0000
2023-05-05T04:57:48.103Z,400.0000
2023-05-05T04:58:49.178Z,400.0000
2023-05-05T04:59:50.272Z,400.0000
2023-05-05T05:00:51.356Z,400.0000
2023-05-05T05:01:52.473Z,400.0000
2023-05-05T05:02:53.611Z,400.0000
2023-05-05T05:03:54.673Z,400.0000
2023-05-05T05:04:55.748Z,400.0000
2023-05-05T05:05:56.832Z,400.0000
2023-05-05T05:06:59.305Z,400.0000
2023-05-05T05:07:59.046Z,400.0000
2023-05-05T05:09:00.156Z,400.0000
2023-05-05T05:10:01.238Z,400.0000
2023-05-05T05:11:02.322Z,400.0000
2023-05-05T05:12:03.447Z,400.0000
2023-05-05T05:13:04.553Z,400.0000
2023-05-05T05:14:05.630Z,400.0000
2023-05-05T05:15:06.731Z,400.1538
2023-05-05T05:16:07.929Z,400.0000
2023-05-05T05:17:08.930Z,400.0000
2023-05-05T05:18:10.043Z,400.0000
2023-05-05T05:19:11.130Z,400.0769
2023-05-05T05:20:12.216Z,400.0000
2023-05-05T05:21:13.319Z,400.0000
2023-05-05T05:22:14.421Z,400.3077
2023-05-05T05:23:15.519Z,401.5385
2023-05-05T05:24:16.642Z,401.5385
2023-05-05T05:25:17.710Z,403.4615
2023-05-05T05:26:18.800Z,409.0769
2023-05-05T05:27:19.912Z,408.7692
2023-05-05T05:28:21.002Z,411.5385
2023-05-05T05:29:22.102Z,417.4615
2023-05-05T05:30:23.200Z,418.6923
2023-05-05T05:31:24.322Z,425.5385
2023-05-05T05:32:25.419Z,424.3846
2023-05-05T05:33:26.517Z,430.0000
2023-05-05T05:34:27.606Z,430.9231
2023-05-05T05:35:28.707Z,439.6154
2023-05-05T05:36:29.820Z,448.8462
2023-05-05T05:37:30.902Z,450.6923
2023-05-05T05:38:32.003Z,451.0000
2023-05-05T05:39:33.102Z,452.0000
2023-05-05T05:40:34.182Z,458.0769
2023-05-05T05:41:35.304Z,457.1538
2023-05-05T05:42:36.374Z,465.5385
2023-05-05T05:43:37.487Z,473.8462
2023-05-05T05:44:38.597Z,471.3846
2023-05-05T05:45:39.727Z,470.8462
2023-05-05T05:46:40.903Z,467.6154
2023-05-05T05:47:41.905Z,474.0769
2023-05-05T05:48:42.957Z,474.9231
2023-05-05T05:49:44.058Z,483.0000
2023-05-05T05:50:45.162Z,487.4615
2023-05-05T05:51:46.264Z,494.9231
2023-05-05T05:52:47.374Z,500.2308
2023-05-05T05:53:48.446Z,502.0000
2023-05-05T05:54:49.551Z,507.8462
2023-05-05T05:55:50.650Z,508.0769
2023-05-05T05:56:51.751Z,512.9231
2023-05-05T05:57:52.854Z,502.2308
2023-05-05T05:58:54.121Z,508.1538
2023-05-05T05:59:55.042Z,510.2308
2023-05-05T06:00:56.154Z,512.4615
2023-05-05T06:01:57.259Z,512.8461
2023-05-05T06:02:58.404Z,515.9231
2023-05-05T06:03:59.496Z,496.5385
2023-05-05T06:05:00.524Z,498.2308
2023-05-05T06:06:01.658Z,496.4615
2023-05-05T06:07:02.724Z,498.8462
2023-05-05T06:08:03.826Z,504.7692
2023-05-05T06:09:04.957Z,500.3846
2023-05-05T06:10:25.190Z,501.7692
2023-05-05T06:11:08.203Z,511.1538
2023-05-05T06:12:08.304Z,500.6923
2023-05-05T06:13:09.427Z,489.3846
2023-05-05T06:14:10.514Z,500.6154
2023-05-05T06:15:11.586Z,504.5385
2023-05-05T06:16:12.746Z,519.7692
2023-05-05T06:17:13.782Z,528.3846
2023-05-05T06:18:14.898Z,529.5385
2023-05-05T06:19:15.990Z,529.3077
2023-05-05T06:20:17.061Z,525.9231
2023-05-05T06:21:18.148Z,551.0000
2023-05-05T06:22:19.247Z,547.2308
2023-05-05T06:23:20.359Z,552.5385
2023-05-05T06:24:21.465Z,550.4615
2023-05-05T06:25:22.539Z,560.4615
2023-05-05T06:26:23.636Z,563.0000
2023-05-05T06:27:24.755Z,558.3077
2023-05-05T06:28:25.825Z,558.6154
2023-05-05T06:29:26.930Z,571.0769
2023-05-05T06:30:28.020Z,564.3846
2023-05-05T06:31:29.178Z,559.6154
2023-05-05T06:32:30.226Z,578.0000
2023-05-05T06:33:31.302Z,602.9231
2023-05-05T06:34:32.446Z,617.3077
2023-05-05T06:35:33.528Z,629.8461
2023-05-05T06:36:34.687Z,642.6154
2023-05-05T06:37:35.716Z,659.9231
2023-05-05T06:38:36.821Z,648.7692
2023-05-05T06:39:37.921Z,673.8461
2023-05-05T06:40:39.009Z,667.0000
2023-05-05T06:41:40.097Z,675.3077
2023-05-05T06:42:41.194Z,672.7692
2023-05-05T06:43:42.286Z,675.9231
2023-05-05T06:44:43.396Z,675.0769
2023-05-05T06:45:44.507Z,696.7692
2023-05-05T06:46:45.611Z,701.1539
2023-05-05T06:47:46.723Z,707.7692
2023-05-05T06:48:47.811Z,703.4615
2023-05-05T06:49:48.896Z,710.3846
2023-05-05T06:50:49.982Z,712.0769
2023-05-05T06:51:51.085Z,693.1539
2023-05-05T06:52:52.175Z,712.0769
2023-05-05T06:53:53.274Z,711.7692
2023-05-05T06:54:54.379Z,711.0769
2023-05-05T06:55:55.464Z,719.6923
2023-05-05T06:56:59.331Z,714.1539
2023-05-05T06:57:57.700Z,707.3077
2023-05-05T06:58:58.771Z,707.3077
2023-05-05T07:00:00.004Z,707.2308
2023-05-05T07:01:01.025Z,707.6923
2023-05-05T07:02:02.079Z,701.6154
2023-05-05T07:03:03.212Z,721.7692
2023-05-05T07:04:04.357Z,700.8461
2023-05-05T07:05:05.348Z,721.5385
2023-05-05T07:06:06.464Z,720.6923
2023-05-05T07:07:07.549Z,730.9231
2023-05-05T07:08:08.645Z,727.6923
2023-05-05T07:09:09.777Z,713.1539
2023-05-05T07:10:10.939Z,710.5385
2023-05-05T07:11:11.983Z,703.9231
2023-05-05T07:12:13.064Z,715.0769
2023-05-05T07:13:14.229Z,715.3077
2023-05-05T07:14:15.273Z,711.1539
2023-05-05T07:15:26.737Z,709.0000
2023-05-05T07:16:18.470Z,714.0000
2023-05-05T07:17:18.552Z,715.3077
2023-05-05T07:18:19.652Z,714.5385
2023-05-05T07:19:20.757Z,718.6154
2023-05-05T07:20:21.869Z,753.3077
2023-05-05T07:21:22.968Z,760.0000
2023-05-05T07:22:24.077Z,753.5385
2023-05-05T07:23:25.145Z,747.1539
2023-05-05T07:24:26.242Z,749.7692
2023-05-05T07:25:27.364Z,741.8461
2023-05-05T07:26:28.439Z,747.6154
2023-05-05T07:27:29.546Z,743.0769
2023-05-05T07:28:30.631Z,741.1539
2023-05-05T07:29:31.738Z,781.7692
2023-05-05T07:30:32.880Z,816.6154
2023-05-05T07:31:33.949Z,816.2308
2023-05-05T07:32:35.027Z,816.3846
2023-05-05T07:33:36.135Z,805.6154
2023-05-05T07:34:37.477Z,799.4615
2023-05-05T07:35:38.309Z,789.3846
2023-05-05T07:36:39.408Z,821.6154
2023-05-05T07:37:40.492Z,907.6923
2023-05-05T07:38:41.601Z,889.6923
2023-05-05T07:39:42.716Z,906.0769
2023-05-05T07:40:43.813Z,906.2308
2023-05-05T07:41:44.895Z,887.3846
2023-05-05T07:42:45.988Z,856.7692
2023-05-05T07:43:47.089Z,849.6154
2023-05-05T07:44:48.193Z,818.0769
2023-05-05T07:45:49.342Z,818.6923
2023-05-05T07:46:50.357Z,790.5385
2023-05-05T07:47:51.481Z,779.3077
2023-05-05T07:48:52.556Z,767.3846
2023-05-05T07:49:53.638Z,760.2308
2023-05-05T07:50:54.769Z,733.3077
2023-05-05T07:51:55.863Z,724.2308
2023-05-05T07:53:06.215Z,716.0000
2023-05-05T07:53:59.037Z,714.2308
2023-05-05T07:54:59.143Z,695.8461
2023-05-05T07:56:00.269Z,708.0769
2023-05-05T07:57:01.349Z,708.2308
2023-05-05T07:58:02.434Z,687.3077
2023-05-05T07:59:03.555Z,699.7692
2023-05-05T08:00:04.765Z,693.4615
2023-05-05T08:01:05.912Z,665.8461
2023-05-05T08:02:06.924Z,753.6923
2023-05-05T08:03:11.307Z,787.5385
2023-05-05T08:04:09.092Z,804.5385
2023-05-05T08:05:10.264Z,730.2308
2023-05-05T08:06:11.310Z,686.8461
2023-05-05T08:07:12.324Z,688.6923
2023-05-05T08:08:13.418Z,679.3846
2023-05-05T08:09:14.539Z,689.7692
2023-05-05T08:10:15.610Z,695.2308
2023-05-05T08:11:16.722Z,696.8461
2023-05-05T08:12:17.875Z,676.3846
2023-05-05T08:13:19.004Z,651.6154
2023-05-05T08:14:20.037Z,642.3077
2023-05-05T08:15:21.090Z,628.6923
2023-05-05T08:16:22.289Z,631.6923
2023-05-05T08:17:23.310Z,637.1539
2023-05-05T08:18:24.378Z,627.9231
2023-05-05T08:19:29.250Z,612.1539
2023-05-05T08:20:26.564Z,629.7692
2023-05-05T08:21:27.680Z,615.0769
2023-05-05T08:22:28.740Z,609.6154
2023-05-05T08:23:29.842Z,600.0000
2023-05-05T08:24:30.939Z,589.7692
2023-05-05T08:25:32.073Z,584.7692
2023-05-05T08:26:33.157Z,612.0769
2023-05-05T08:27:34.250Z,625.3846
2023-05-05T08:28:35.354Z,619.7692
2023-05-05T08:29:36.429Z,607.6154
2023-05-05T08:30:37.559Z,589.8461
2023-05-05T08:31:38.910Z,579.3846
2023-05-05T08:32:39.813Z,580.2308
2023-05-05T08:33:40.840Z,577.0769
2023-05-05T08:34:41.927Z,571.3846
2023-05-05T08:35:43.038Z,572.3846
2023-05-05T08:36:44.166Z,589.6923
2023-05-05T08:37:45.233Z,582.6923
2023-05-05T08:38:46.350Z,584.5385
2023-05-05T08:39:47.453Z,584.4615
2023-05-05T08:40:48.541Z,566.1539
2023-05-05T08:41:49.644Z,566.6923
2023-05-05T08:42:50.747Z,586.1539
2023-05-05T08:43:51.826Z,737.3846
2023-05-05T08:44:52.942Z,680.4615
2023-05-05T08:45:54.044Z,649.5385
2023-05-05T08:46:55.229Z,609.5385
2023-05-05T08:47:56.275Z,627.5385
2023-05-05T08:48:57.334Z,641.6923
2023-05-05T08:49:58.438Z,633.0000
2023-05-05T08:51:00.791Z,610.8461
2023-05-05T08:52:00.638Z,600.1539
2023-05-05T08:53:01.760Z,631.8461
2023-05-05T08:54:02.811Z,688.3846
2023-05-05T08:55:03.917Z,713.2308
2023-05-05T08:56:05.024Z,728.4615
2023-05-05T08:57:06.141Z,701.5385
2023-05-05T08:58:07.236Z,684.8461
2023-05-05T08:59:08.319Z,673.4615
2023-05-05T09:00:09.419Z,682.6923
2023-05-05T09:01:10.624Z,676.5385
2023-05-05T09:02:11.776Z,683.3077
2023-05-05T09:03:12.842Z,654.5385
2023-05-05T09:04:13.800Z,654.8461
2023-05-05T09:05:14.908Z,651.6154
2023-05-05T09:06:16.003Z,633.3077
2023-05-05T09:07:17.102Z,638.6923
2023-05-05T09:08:18.183Z,663.5385
2023-05-05T09:09:19.280Z,642.2308
2023-05-05T09:10:20.374Z,631.3846
2023-05-05T09:11:21.479Z,606.4615
2023-05-05T09:12:22.579Z,609.7692
2023-05-05T09:13:23.660Z,627.7692
2023-05-05T09:14:24.780Z,658.0000
2023-05-05T09:15:25.869Z,678.2308
2023-05-05T09:16:26.978Z,642.9231
2023-05-05T09:17:28.145Z,630.0000
2023-05-05T09:18:29.129Z,626.1539
2023-05-05T09:19:30.220Z,614.2308
2023-05-05T09:20:31.316Z,595.7692
2023-05-05T09:21:32.474Z,588.6154
2023-05-05T09:22:33.527Z,584.8461
2023-05-05T09:23:34.613Z,579.2308
2023-05-05T09:24:35.706Z,571.6923
2023-05-05T09:25:36.800Z,560.6154
2023-05-05T09:26:37.915Z,571.8461
2023-05-05T09:27:39.016Z,576.9231
2023-05-05T09:28:40.101Z,580.0000
2023-05-05T09:29:41.256Z,577.0769
2023-05-05T09:30:42.339Z,566.5385
2023-05-05T09:31:43.410Z,551.3846
2023-05-05T09:32:44.670Z,544.6154
2023-05-05T09:33:45.600Z,542.0000
2023-05-05T09:34:46.675Z,543.3846
2023-05-05T09:35:47.783Z,536.8461
2023-05-05T09:36:48.916Z,536.2308
2023-05-05T09:37:49.994Z,525.7692
2023-05-05T09:38:51.071Z,526.2308
2023-05-05T09:39:52.179Z,527.1539
2023-05-05T09:40:53.272Z,522.5385
2023-05-05T09:41:54.379Z,504.3077
2023-05-05T09:42:55.474Z,499.8462
2023-05-05T09:43:56.565Z,504.4615
2023-05-05T09:44:59.679Z,496.5385
2023-05-05T09:45:58.819Z,488.7692
2023-05-05T09:46:59.876Z,492.6923
2023-05-05T09:48:01.176Z,497.7692
2023-05-05T09:49:02.070Z,485.6923
2023-05-05T09:50:03.160Z,491.2308
2023-05-05T09:51:04.256Z,488.8462
2023-05-05T09:52:05.379Z,487.2308
2023-05-05T09:53:06.451Z,481.0000
2023-05-05T09:54:07.575Z,480.6154
2023-05-05T09:55:08.657Z,479.3077
2023-05-05T09:56:09.753Z,470.4615
2023-05-05T09:57:10.836Z,473.9231
2023-05-05T09:58:11.972Z,475.7692
2023-05-05T09:59:13.054Z,471.9231
2023-05-05T10:00:14.150Z,465.9231
2023-05-05T10:01:15.258Z,466.3077
2023-05-05T10:02:16.352Z,468.0769
2023-05-05T10:03:17.515Z,462.0000
2023-05-05T10:04:18.535Z,458.4615
2023-05-05T10:05:19.680Z,464.3846
2023-05-05T10:06:20.728Z,468.4615
2023-05-05T10:07:21.831Z,461.6923
2023-05-05T10:08:22.915Z,459.5385
2023-05-05T10:09:24.026Z,466.1538
2023-05-05T10:10:26.903Z,465.2308
2023-05-05T10:11:26.296Z,463.0769
2023-05-05T10:12:27.400Z,457.3077
2023-05-05T10:13:28.505Z,450.3077
2023-05-05T10:14:29.576Z,449.0000
2023-05-05T10:15:30.655Z,442.8462
2023-05-05T10:16:31.849Z,444.3077
2023-05-05T10:17:32.921Z,448.6154
2023-05-05T10:18:34.032Z,444.0769
2023-05-05T10:19:35.066Z,441.0769
2023-05-05T10:20:36.195Z,446.1538
2023-05-05T10:21:37.234Z,439.9231
2023-05-05T10:22:38.324Z,440.3846
2023-05-05T10:23:39.427Z,446.3846
2023-05-05T10:24:40.529Z,447.5385
2023-05-05T10:25:41.623Z,448.0000
2023-05-05T10:26:42.725Z,455.3077
2023-05-05T10:27:43.818Z,450.2308
2023-05-05T10:28:44.963Z,456.3077
2023-05-05T10:29:46.035Z,452.1538
2023-05-05T10:30:47.098Z,451.0000
2023-05-05T10:31:48.215Z,451.3077
2023-05-05T10:32:54.389Z,451.9231
2023-05-05T10:33:51.586Z,448.1538
2023-05-05T10:34:51.487Z,448.6923
2023-05-05T10:35:52.593Z,451.3846
2023-05-05T10:36:53.703Z,448.7692
2023-05-05T10:37:54.806Z,456.5385
2023-05-05T10:38:55.903Z,457.3077
2023-05-05T10:39:56.967Z,458.3077
2023-05-05T10:40:58.063Z,457.1538
2023-05-05T10:41:59.191Z,475.0769
2023-05-05T10:43:00.271Z,471.9231
2023-05-05T10:44:04.284Z,467.3077
2023-05-05T10:45:02.501Z,469.2308
2023-05-05T10:46:03.590Z,472.6923
2023-05-05T10:47:04.668Z,466.2308
2023-05-05T10:48:05.811Z,457.4615
2023-05-05T10:49:06.859Z,464.6154
2023-05-05T10:50:08.190Z,477.8462
2023-05-05T10:51:09.056Z,488.6923
2023-05-05T10:52:10.129Z,489.8462
2023-05-05T10:53:11.271Z,495.6154
2023-05-05T10:54:12.391Z,498.8462
2023-05-05T10:55:13.484Z,516.0000
2023-05-05T10:56:14.528Z,509.6923
2023-05-05T10:57:15.635Z,501.3077
2023-05-05T10:58:16.713Z,505.7692
2023-05-05T10:59:17.811Z,516.5385
2023-05-05T11:00:18.918Z,510.9231
2023-05-05T11:01:20.050Z,508.2308
2023-05-05T11:02:21.130Z,513.6923
2023-05-05T11:03:22.383Z,504.0769
2023-05-05T11:04:23.460Z,506.0000
2023-05-05T11:05:24.387Z,509.0769
2023-05-05T11:06:25.490Z,525.3846
2023-05-05T11:07:26.574Z,510.6154
2023-05-05T11:08:27.690Z,522.2308
2023-05-05T11:09:28.897Z,532.4615
2023-05-05T11:10:29.875Z,529.8461
2023-05-05T11:11:30.968Z,553.0000
2023-05-05T11:12:32.150Z,550.6154
2023-05-05T11:13:33.168Z,543.3846
2023-05-05T11:14:34.290Z,523.3846
2023-05-05T11:15:35.435Z,530.3077
2023-05-05T11:16:36.473Z,525.8461
2023-05-05T11:17:37.538Z,530.3077
2023-05-05T11:18:38.663Z,530.7692
2023-05-05T11:19:39.852Z,544.1539
2023-05-05T11:20:40.837Z,571.1539
2023-05-05T11:21:41.910Z,583.0000
2023-05-05T11:22:43.020Z,574.6154
2023-05-05T11:23:44.116Z,572.1539
2023-05-05T11:24:45.227Z,565.7692
2023-05-05T11:25:46.314Z,569.0769
2023-05-05T11:26:47.427Z,589.3077
2023-05-05T11:27:48.496Z,576.5385
2023-05-05T11:28:49.601Z,575.4615
2023-05-05T11:29:52.051Z,558.3846
2023-05-05T11:30:51.839Z,572.6154
2023-05-05T11:31:52.878Z,617.3846
2023-05-05T11:32:54.085Z,635.4615
2023-05-05T11:33:55.087Z,655.3846
2023-05-05T11:34:56.265Z,679.2308
2023-05-05T11:35:57.286Z,670.2308
2023-05-05T11:36:58.376Z,677.1539
2023-05-05T11:37:59.471Z,681.4615
2023-05-05T11:39:00.570Z,669.7692
2023-05-05T11:40:01.696Z,693.3077
2023-05-05T11:41:02.779Z,699.6154
2023-05-05T11:42:09.410Z,723.0000
2023-05-05T11:43:05.976Z,714.6154
2023-05-05T11:44:06.068Z,706.9231
2023-05-05T11:45:07.163Z,702.6154
2023-05-05T11:46:08.306Z,721.0000
2023-05-05T11:47:09.354Z,740.7692
2023-05-05T11:48:10.457Z,737.3846
2023-05-05T11:49:11.532Z,752.5385
2023-05-05T11:50:12.738Z,748.2308
2023-05-05T11:51:13.729Z,747.3846
2023-05-05T11:52:14.873Z,755.4615
2023-05-05T11:53:15.918Z,779.3077
2023-05-05T11:54:17.025Z,767.7692
2023-05-05T11:55:18.123Z,1038.1538
2023-05-05T11:56:19.446Z,846.9231
2023-05-05T11:57:20.322Z,916.3846